Monroe, Utah
Current Conditions -  °F | °C
As of 12:52 AM on Friday 28 Nov 2014 (Local Time) from KMLF Reporting Station
Clear Clear  
Wind Chill: 33°   Ceiling: Unl
Heat Index: 41°   Visibility: 10mi
Dew Point: 16°   Wind: 14mph
Humidity: 36%   Direction: 210°SSW
Pressure: 30.18"   Gusts: NA
Location:  38.63°N, 112.12°W
Report Text: KMLF 280752Z AUTO 21012KT 10SM CLR 05/M09 A3018 RMK AO2 SLP200 T00501089 TSNO
Loading
Personal Weather Stations






























Interactive Weather Map New forecast layout! Learn more

10-Day Weather Forecast

Advertisements
Track Severe Weather on mobile